Thunder radar more information blitzortung!


Radar de pluja more information rain snow radar


Visita la nostra xarxa de llocs de meteo:

Template documentation
and downloads

And another site



No particular awareness of the weather is required.    There are no Weather-warnings

Pagina Historial Weather Underground text

Diari Resum Agost 19, 2018 Unitats:  Tant    Imperial   Mètric
« Previous Dia
SegĂźent Dia »
Diari Setmana Mensual Anual Personalitzada
  Actual: Maxima: Minima: Media:
Temperatura: 18.2 °F /  -7.7 °C TemperatureC °F /  -17.8 °C 18.2 °F /  -7.7 °C 19.1 °F /  -7.2 °C
Punt de rosada: 14.5 °F /  -9.7 °C DewpointC °F /  -17.8 °C 14.3 °F /  -9.8 °C 14.4 °F /  -9.8 °C
Humitat: 79 % Humidity % 67 % 73 %
Wind Speed: 0.0 mph /  0 km/h WindSpeedKMH mph /  0 km/h - 0.1 mph /  0.2 km/h
RĂ fegues de vent: 0.0 mph /  0 km/h WindSpeedGustKMH mph /  0 km/h - -
Vent:Calm - - SW
Pression baro: 1019.9 in /  34533.8 hPa PressurehPa in /  0 hPa 1018.9 in /  34500 hPa -
Precipitacions: 0.0 in /  0 mm      
Historical Graphs
 
 
Dades de taula per Agost 19, 2018
Temps Temperatura Punt de rosada Pression baro Vent Wind Speed RĂ fegues de vent Humitat Rainfall Rate (Hourly)
TemperatureC °F /  -17.8 °C DewpointC °F /  -17.8 °C PressurehPa in /  0 hPa Calm     Humidity % HourlyPrecipMM in /  0 mm
00:04 21.0 °F /  -6.1 °C 14.6 °F /  -9.7 °C 1018.9 in /  34500 hPa Calm     67 % 0.0 in /  0 mm
00:09 20.9 °F /  -6.2 °C 14.6 °F /  -9.7 °C 1018.9 in /  34500 hPa Calm     67 % 0.0 in /  0 mm
00:14 20.9 °F /  -6.2 °C 14.6 °F /  -9.7 °C 1018.9 in /  34500 hPa Calm     67 % 0.0 in /  0 mm
00:19 21.0 °F /  -6.1 °C 14.6 °F /  -9.7 °C 1018.9 in /  34500 hPa Calm     67 % 0.0 in /  0 mm
00:24 20.9 °F /  -6.2 °C 14.8 °F /  -9.6 °C 1018.9 in /  34500 hPa Calm     68 % 0.0 in /  0 mm
00:29 20.8 °F /  -6.2 °C 14.9 °F /  -9.5 °C 1018.9 in /  34500 hPa Calm     69 % 0.0 in /  0 mm
00:34 20.5 °F /  -6.4 °C 14.6 °F /  -9.7 °C 1018.9 in /  34500 hPa Calm     69 % 0.0 in /  0 mm
00:39 20.3 °F /  -6.5 °C 14.4 °F /  -9.8 °C 1018.9 in /  34500 hPa Calm     69 % 0.0 in /  0 mm
00:44 20.1 °F /  -6.6 °C 14.4 °F /  -9.8 °C 1018.9 in /  34500 hPa Calm     70 % 0.0 in /  0 mm
00:49 20.0 °F /  -6.7 °C 14.3 °F /  -9.8 °C 1018.9 in /  34500 hPa Calm     70 % 0.0 in /  0 mm
00:54 20.0 °F /  -6.7 °C 14.6 °F /  -9.7 °C 1018.9 in /  34500 hPa Calm     71 % 0.0 in /  0 mm
00:59 20.0 °F /  -6.7 °C 14.6 °F /  -9.7 °C 1018.9 in /  34500 hPa Calm     71 % 0.0 in /  0 mm
01:04 20.0 °F /  -6.7 °C 14.6 °F /  -9.7 °C 1018.9 in /  34500 hPa Calm     71 % 0.0 in /  0 mm
01:09 20.0 °F /  -6.7 °C 14.6 °F /  -9.7 °C 1018.9 in /  34500 hPa Calm     71 % 0.0 in /  0 mm
01:14 19.9 °F /  -6.7 °C 14.9 °F /  -9.5 °C 1018.9 in /  34500 hPa Calm     73 % 0.0 in /  0 mm
01:19 19.9 °F /  -6.7 °C 14.9 °F /  -9.5 °C 1018.9 in /  34500 hPa Calm     73 % 0.0 in /  0 mm
01:24 19.8 °F /  -6.8 °C 14.8 °F /  -9.6 °C 1019.9 in /  34533.8 hPa Calm     73 % 0.0 in /  0 mm
01:29 19.8 °F /  -6.8 °C 14.8 °F /  -9.6 °C 1019.9 in /  34533.8 hPa Calm     73 % 0.0 in /  0 mm
01:34 19.8 °F /  -6.8 °C 14.8 °F /  -9.6 °C 1019.9 in /  34533.8 hPa Calm     73 % 0.0 in /  0 mm
01:39 19.9 °F /  -6.7 °C 14.9 °F /  -9.5 °C 1019.9 in /  34533.8 hPa Calm     73 % 0.0 in /  0 mm
01:44 19.7 °F /  -6.8 °C 14.5 °F /  -9.7 °C 1019.9 in /  34533.8 hPa Calm     72 % 0.0 in /  0 mm
01:49 19.6 °F /  -6.9 °C 14.6 °F /  -9.7 °C 1019.9 in /  34533.8 hPa Calm     73 % 0.0 in /  0 mm
01:54 19.6 °F /  -6.9 °C 14.6 °F /  -9.7 °C 1018.9 in /  34500 hPa Calm     73 % 0.0 in /  0 mm
01:59 19.5 °F /  -6.9 °C 14.6 °F /  -9.7 °C 1018.9 in /  34500 hPa Calm     73 % 0.0 in /  0 mm
02:04 19.5 °F /  -6.9 °C 14.7 °F /  -9.6 °C 1018.9 in /  34500 hPa Calm     74 % 0.0 in /  0 mm
02:09 19.5 °F /  -6.9 °C 14.7 °F /  -9.6 °C 1019.9 in /  34533.8 hPa Calm     74 % 0.0 in /  0 mm
02:14 19.4 °F /  -7 °C 14.7 °F /  -9.6 °C 1019.9 in /  34533.8 hPa Calm     74 % 0.0 in /  0 mm
02:19 19.3 °F /  -7.1 °C 14.8 °F /  -9.6 °C 1019.9 in /  34533.8 hPa Calm     75 % 0.0 in /  0 mm
02:24 19.3 °F /  -7.1 °C 14.8 °F /  -9.6 °C 1019.9 in /  34533.8 hPa Calm     75 % 0.0 in /  0 mm
02:29 19.3 °F /  -7.1 °C 14.8 °F /  -9.6 °C 1019.9 in /  34533.8 hPa Calm     75 % 0.0 in /  0 mm
02:34 19.2 °F /  -7.1 °C 14.7 °F /  -9.6 °C 1019.9 in /  34533.8 hPa Calm     75 % 0.0 in /  0 mm
02:39 19.1 °F /  -7.2 °C 14.6 °F /  -9.7 °C 1018.9 in /  34500 hPa Calm     75 % 0.0 in /  0 mm
02:44 19.0 °F /  -7.2 °C 14.4 °F /  -9.8 °C 1018.9 in /  34500 hPa Calm     75 % 0.0 in /  0 mm
02:49 18.9 °F /  -7.3 °C 14.6 °F /  -9.7 °C 1018.9 in /  34500 hPa Calm     76 % 0.0 in /  0 mm
02:54 18.9 °F /  -7.3 °C 14.8 °F /  -9.6 °C 1018.9 in /  34500 hPa Calm     77 % 0.0 in /  0 mm
02:59 18.8 °F /  -7.3 °C 14.9 °F /  -9.5 °C 1018.9 in /  34500 hPa Calm     78 % 0.0 in /  0 mm
03:04 18.8 °F /  -7.3 °C 14.9 °F /  -9.5 °C 1018.9 in /  34500 hPa Calm     78 % 0.0 in /  0 mm
03:09 18.8 °F /  -7.3 °C 14.9 °F /  -9.5 °C 1018.9 in /  34500 hPa Calm     78 % 0.0 in /  0 mm
03:14 18.8 °F /  -7.3 °C 14.7 °F /  -9.6 °C 1018.9 in /  34500 hPa Calm     77 % 0.0 in /  0 mm
03:19 18.6 °F /  -7.4 °C 14.7 °F /  -9.6 °C 1018.9 in /  34500 hPa Calm     78 % 0.0 in /  0 mm
03:24 18.5 °F /  -7.5 °C 14.6 °F /  -9.7 °C 1019.9 in /  34533.8 hPa Calm     78 % 0.0 in /  0 mm
03:29 18.4 °F /  -7.6 °C 14.5 °F /  -9.7 °C 1019.9 in /  34533.8 hPa Calm     78 % 0.0 in /  0 mm
03:34 18.4 °F /  -7.6 °C 14.5 °F /  -9.7 °C 1019.9 in /  34533.8 hPa Calm     78 % 0.0 in /  0 mm
03:39 18.3 °F /  -7.6 °C 14.4 °F /  -9.8 °C 1018.9 in /  34500 hPa SW 1.9 mph /  3.1 km/h   78 % 0.0 in /  0 mm
03:44 18.4 °F /  -7.6 °C 14.5 °F /  -9.7 °C 1018.9 in /  34500 hPa Calm     78 % 0.0 in /  0 mm
03:49 18.3 °F /  -7.6 °C 14.4 °F /  -9.8 °C 1018.9 in /  34500 hPa Calm     78 % 0.0 in /  0 mm
03:54 18.3 °F /  -7.6 °C 14.4 °F /  -9.8 °C 1019.9 in /  34533.8 hPa SW 1.9 mph /  3.1 km/h   78 % 0.0 in /  0 mm
03:59 18.3 °F /  -7.6 °C 14.6 °F /  -9.7 °C 1019.9 in /  34533.8 hPa Calm     79 % 0.0 in /  0 mm
04:04 18.2 °F /  -7.7 °C 14.5 °F /  -9.7 °C 1019.9 in /  34533.8 hPa Calm     79 % 0.0 in /  0 mm
04:09 18.2 °F /  -7.7 °C 14.5 °F /  -9.7 °C 1019.9 in /  34533.8 hPa Calm     79 % 0.0 in /  0 mm
04:14 18.2 °F /  -7.7 °C 14.5 °F /  -9.7 °C 1019.9 in /  34533.8 hPa Calm     79 % 0.0 in /  0 mm
Meteo Sesrovires
Elogis d' Weather Underground - 2 mb

Guio original per  Jim McMurry - jmcmurry@mwt.net Adaptat per a la plantilla per  Wim van der Kuil - Leuven-Template.eu

Trobareu la nostra informacio del temps tambe a:

Weather Underground

AWEKAS